sensor_id;sensor_type;location;lat;lon;timestamp;noise_LAeq;noise_LA_min;noise_LA_max;noise_LA01;noise_LA95
38366;Laerm;943;51.568;6.998;2023-05-07T00:01:07;36.70;32.96;44.89;;
38366;Laerm;943;51.568;6.998;2023-05-07T00:03:35;36.19;31.72;43.17;;
38366;Laerm;943;51.568;6.998;2023-05-07T00:06:04;34.05;31.59;37.90;;
38366;Laerm;943;51.568;6.998;2023-05-07T00:08:32;36.94;31.57;45.76;;
38366;Laerm;943;51.568;6.998;2023-05-07T00:10:59;35.95;31.37;45.63;;
38366;Laerm;943;51.568;6.998;2023-05-07T00:13:27;39.08;32.41;51.96;;
38366;Laerm;943;51.568;6.998;2023-05-07T00:15:57;35.28;31.06;43.38;;
38366;Laerm;943;51.568;6.998;2023-05-07T00:18:25;35.18;32.13;39.90;;
38366;Laerm;943;51.568;6.998;2023-05-07T00:20:53;36.65;32.13;43.96;;
38366;Laerm;943;51.568;6.998;2023-05-07T00:23:22;38.55;32.51;48.34;;
38366;Laerm;943;51.568;6.998;2023-05-07T00:25:50;37.77;32.54;51.26;;
38366;Laerm;943;51.568;6.998;2023-05-07T00:28:17;36.66;31.72;45.86;;
38366;Laerm;943;51.568;6.998;2023-05-07T00:30:45;37.77;32.12;49.04;;
38366;Laerm;943;51.568;6.998;2023-05-07T00:33:13;41.98;31.89;59.37;;
38366;Laerm;943;51.568;6.998;2023-05-07T00:35:42;42.69;31.47;68.25;;
38366;Laerm;943;51.568;6.998;2023-05-07T00:38:10;35.58;31.53;42.21;;
38366;Laerm;943;51.568;6.998;2023-05-07T00:40:37;36.90;32.66;43.88;;
38366;Laerm;943;51.568;6.998;2023-05-07T00:43:05;36.57;32.87;41.71;;
38366;Laerm;943;51.568;6.998;2023-05-07T00:45:34;35.97;31.31;43.17;;
38366;Laerm;943;51.568;6.998;2023-05-07T00:48:03;38.79;32.33;50.56;;
38366;Laerm;943;51.568;6.998;2023-05-07T00:50:33;36.34;32.18;44.28;;
38366;Laerm;943;51.568;6.998;2023-05-07T00:53:01;36.74;32.50;45.75;;
38366;Laerm;943;51.568;6.998;2023-05-07T00:55:30;35.06;31.62;40.54;;
38366;Laerm;943;51.568;6.998;2023-05-07T00:57:58;36.47;32.00;46.00;;
38366;Laerm;943;51.568;6.998;2023-05-07T01:00:26;34.71;31.45;40.11;;
38366;Laerm;943;51.568;6.998;2023-05-07T01:02:55;37.25;31.88;47.69;;
38366;Laerm;943;51.568;6.998;2023-05-07T01:05:26;37.79;31.78;53.14;;
38366;Laerm;943;51.568;6.998;2023-05-07T01:07:56;37.84;32.31;53.88;;
38366;Laerm;943;51.568;6.998;2023-05-07T01:10:25;49.35;31.93;69.36;;
38366;Laerm;943;51.568;6.998;2023-05-07T01:12:57;35.97;32.89;41.44;;
38366;Laerm;943;51.568;6.998;2023-05-07T01:15:25;37.20;32.55;49.88;;
38366;Laerm;943;51.568;6.998;2023-05-07T01:17:53;38.83;32.71;47.17;;
38366;Laerm;943;51.568;6.998;2023-05-07T01:20:28;36.85;31.90;42.70;;
38366;Laerm;943;51.568;6.998;2023-05-07T01:22:57;37.70;32.23;50.41;;
38366;Laerm;943;51.568;6.998;2023-05-07T01:25:28;36.18;33.13;43.04;;
38366;Laerm;943;51.568;6.998;2023-05-07T01:27:58;37.30;32.09;46.38;;
38366;Laerm;943;51.568;6.998;2023-05-07T01:30:35;36.77;32.79;42.62;;
38366;Laerm;943;51.568;6.998;2023-05-07T01:33:13;35.97;31.80;45.55;;
38366;Laerm;943;51.568;6.998;2023-05-07T01:35:51;36.58;32.48;43.82;;
38366;Laerm;943;51.568;6.998;2023-05-07T01:38:23;35.52;32.46;40.70;;
38366;Laerm;943;51.568;6.998;2023-05-07T01:40:51;34.94;32.13;40.36;;
38366;Laerm;943;51.568;6.998;2023-05-07T01:43:20;34.97;31.49;40.03;;
38366;Laerm;943;51.568;6.998;2023-05-07T01:45:49;36.35;31.61;46.16;;
38366;Laerm;943;51.568;6.998;2023-05-07T01:48:18;36.53;32.33;42.31;;
38366;Laerm;943;51.568;6.998;2023-05-07T01:50:47;35.11;32.48;38.40;;
38366;Laerm;943;51.568;6.998;2023-05-07T01:53:16;34.28;31.15;40.38;;
38366;Laerm;943;51.568;6.998;2023-05-07T01:55:45;34.54;31.19;39.46;;
38366;Laerm;943;51.568;6.998;2023-05-07T01:58:15;33.75;31.01;40.46;;
38366;Laerm;943;51.568;6.998;2023-05-07T02:00:43;35.75;32.02;42.43;;
38366;Laerm;943;51.568;6.998;2023-05-07T02:03:11;36.25;32.39;46.81;;
38366;Laerm;943;51.568;6.998;2023-05-07T02:05:46;36.31;31.51;43.15;;
38366;Laerm;943;51.568;6.998;2023-05-07T02:08:35;35.43;31.26;44.92;;
38366;Laerm;943;51.568;6.998;2023-05-07T02:11:04;36.36;32.22;44.78;;
38366;Laerm;943;51.568;6.998;2023-05-07T02:13:34;45.35;31.23;67.40;;
38366;Laerm;943;51.568;6.998;2023-05-07T02:16:03;34.11;31.11;47.56;;
38366;Laerm;943;51.568;6.998;2023-05-07T02:18:31;37.36;31.93;57.62;;
38366;Laerm;943;51.568;6.998;2023-05-07T02:20:59;41.11;31.58;61.43;;
38366;Laerm;943;51.568;6.998;2023-05-07T02:23:26;40.52;32.44;60.26;;
38366;Laerm;943;51.568;6.998;2023-05-07T02:25:55;34.85;31.49;39.26;;
38366;Laerm;943;51.568;6.998;2023-05-07T02:28:23;34.99;30.52;41.83;;
38366;Laerm;943;51.568;6.998;2023-05-07T02:30:58;34.98;32.26;47.92;;
38366;Laerm;943;51.568;6.998;2023-05-07T02:33:29;38.03;31.61;54.91;;
38366;Laerm;943;51.568;6.998;2023-05-07T02:36:09;50.19;32.31;70.20;;
38366;Laerm;943;51.568;6.998;2023-05-07T02:38:44;51.62;32.38;69.93;;
38366;Laerm;943;51.568;6.998;2023-05-07T02:41:12;53.12;32.55;73.66;;
38366;Laerm;943;51.568;6.998;2023-05-07T02:43:40;52.74;33.51;70.38;;
38366;Laerm;943;51.568;6.998;2023-05-07T02:46:09;53.94;35.10;68.38;;
38366;Laerm;943;51.568;6.998;2023-05-07T02:48:41;54.03;33.76;70.04;;
38366;Laerm;943;51.568;6.998;2023-05-07T02:51:09;47.84;34.09;65.51;;
38366;Laerm;943;51.568;6.998;2023-05-07T02:53:40;50.04;34.62;66.09;;
38366;Laerm;943;51.568;6.998;2023-05-07T02:56:07;51.97;34.90;65.50;;
38366;Laerm;943;51.568;6.998;2023-05-07T02:58:35;52.88;35.42;66.61;;
38366;Laerm;943;51.568;6.998;2023-05-07T03:01:04;54.37;36.59;66.99;;
38366;Laerm;943;51.568;6.998;2023-05-07T03:03:53;53.76;36.74;66.44;;
38366;Laerm;943;51.568;6.998;2023-05-07T03:06:22;54.94;37.15;67.23;;
38366;Laerm;943;51.568;6.998;2023-05-07T03:08:49;55.08;36.89;66.55;;
38366;Laerm;943;51.568;6.998;2023-05-07T03:11:17;54.09;36.88;67.36;;
38366;Laerm;943;51.568;6.998;2023-05-07T03:13:45;56.30;37.27;68.88;;
38366;Laerm;943;51.568;6.998;2023-05-07T03:16:13;60.32;37.40;70.60;;
38366;Laerm;943;51.568;6.998;2023-05-07T03:18:41;58.01;38.02;72.05;;
38366;Laerm;943;51.568;6.998;2023-05-07T03:21:09;55.50;38.99;70.75;;
38366;Laerm;943;51.568;6.998;2023-05-07T03:23:37;57.67;37.15;71.66;;
38366;Laerm;943;51.568;6.998;2023-05-07T03:26:05;55.08;35.09;70.07;;
38366;Laerm;943;51.568;6.998;2023-05-07T03:28:33;52.06;36.96;66.70;;
38366;Laerm;943;51.568;6.998;2023-05-07T03:31:04;54.95;37.25;73.60;;
38366;Laerm;943;51.568;6.998;2023-05-07T03:33:54;54.81;38.29;70.42;;
38366;Laerm;943;51.568;6.998;2023-05-07T03:36:24;53.98;36.26;68.23;;
38366;Laerm;943;51.568;6.998;2023-05-07T03:38:55;55.77;34.89;70.72;;
38366;Laerm;943;51.568;6.998;2023-05-07T03:41:26;55.48;34.59;71.29;;
38366;Laerm;943;51.568;6.998;2023-05-07T03:43:54;50.74;36.12;69.42;;
38366;Laerm;943;51.568;6.998;2023-05-07T03:46:22;50.18;35.60;64.52;;
38366;Laerm;943;51.568;6.998;2023-05-07T03:48:50;44.83;35.60;62.16;;
38366;Laerm;943;51.568;6.998;2023-05-07T03:51:19;42.14;34.43;54.97;;
38366;Laerm;943;51.568;6.998;2023-05-07T03:53:46;40.61;34.95;57.12;;
38366;Laerm;943;51.568;6.998;2023-05-07T03:56:14;46.59;34.60;66.26;;
38366;Laerm;943;51.568;6.998;2023-05-07T03:58:45;48.09;35.15;69.73;;
38366;Laerm;943;51.568;6.998;2023-05-07T04:01:13;46.28;34.06;60.66;;
38366;Laerm;943;51.568;6.998;2023-05-07T04:03:41;45.74;35.47;60.48;;
38366;Laerm;943;51.568;6.998;2023-05-07T04:06:09;48.42;35.92;61.05;;
38366;Laerm;943;51.568;6.998;2023-05-07T04:08:37;43.97;36.05;60.08;;
38366;Laerm;943;51.568;6.998;2023-05-07T04:11:06;51.90;34.17;68.63;;
38366;Laerm;943;51.568;6.998;2023-05-07T04:13:36;53.02;35.28;68.48;;
38366;Laerm;943;51.568;6.998;2023-05-07T04:16:06;51.46;34.75;69.09;;
38366;Laerm;943;51.568;6.998;2023-05-07T04:18:36;55.06;36.25;80.08;;
38366;Laerm;943;51.568;6.998;2023-05-07T04:21:05;54.41;36.15;76.40;;
38366;Laerm;943;51.568;6.998;2023-05-07T04:23:36;47.63;35.32;68.71;;
38366;Laerm;943;51.568;6.998;2023-05-07T04:26:08;49.83;36.58;70.50;;
38366;Laerm;943;51.568;6.998;2023-05-07T04:28:40;59.93;36.32;81.11;;
38366;Laerm;943;51.568;6.998;2023-05-07T04:31:08;43.86;34.26;57.84;;
38366;Laerm;943;51.568;6.998;2023-05-07T04:33:37;43.27;36.19;64.12;;
38366;Laerm;943;51.568;6.998;2023-05-07T04:36:08;44.44;35.01;64.22;;
38366;Laerm;943;51.568;6.998;2023-05-07T04:38:43;41.14;35.47;61.73;;
38366;Laerm;943;51.568;6.998;2023-05-07T04:41:13;42.14;35.11;65.07;;
38366;Laerm;943;51.568;6.998;2023-05-07T04:43:41;40.80;35.24;56.05;;
38366;Laerm;943;51.568;6.998;2023-05-07T04:46:11;40.94;36.24;58.64;;
38366;Laerm;943;51.568;6.998;2023-05-07T04:48:39;43.21;34.62;61.08;;
38366;Laerm;943;51.568;6.998;2023-05-07T04:51:07;39.25;34.74;56.89;;
38366;Laerm;943;51.568;6.998;2023-05-07T04:53:37;39.25;34.15;59.65;;
38366;Laerm;943;51.568;6.998;2023-05-07T04:56:05;42.41;35.09;60.52;;
38366;Laerm;943;51.568;6.998;2023-05-07T04:58:39;39.28;34.78;54.53;;
38366;Laerm;943;51.568;6.998;2023-05-07T05:01:08;41.31;34.41;57.44;;
38366;Laerm;943;51.568;6.998;2023-05-07T05:03:38;46.26;36.22;61.96;;
38366;Laerm;943;51.568;6.998;2023-05-07T05:06:09;39.46;34.20;51.29;;
38366;Laerm;943;51.568;6.998;2023-05-07T05:08:38;40.66;34.19;60.99;;
38366;Laerm;943;51.568;6.998;2023-05-07T05:11:07;40.50;34.11;54.16;;
38366;Laerm;943;51.568;6.998;2023-05-07T05:13:37;44.15;34.97;60.33;;
38366;Laerm;943;51.568;6.998;2023-05-07T05:16:12;48.04;36.41;63.29;;
38366;Laerm;943;51.568;6.998;2023-05-07T05:18:42;53.76;34.82;79.77;;
38366;Laerm;943;51.568;6.998;2023-05-07T05:21:13;43.61;34.37;62.09;;
38366;Laerm;943;51.568;6.998;2023-05-07T05:23:43;48.28;34.59;63.41;;
38366;Laerm;943;51.568;6.998;2023-05-07T05:26:12;45.98;35.02;61.59;;
38366;Laerm;943;51.568;6.998;2023-05-07T05:28:41;48.35;34.16;62.47;;
38366;Laerm;943;51.568;6.998;2023-05-07T05:31:09;47.12;35.12;64.36;;
38366;Laerm;943;51.568;6.998;2023-05-07T05:33:37;47.54;34.18;65.41;;
38366;Laerm;943;51.568;6.998;2023-05-07T05:36:07;55.72;34.05;85.67;;
38366;Laerm;943;51.568;6.998;2023-05-07T05:38:37;44.45;34.63;61.55;;
38366;Laerm;943;51.568;6.998;2023-05-07T05:41:06;41.90;34.66;58.19;;
38366;Laerm;943;51.568;6.998;2023-05-07T05:43:34;57.24;34.96;78.41;;
38366;Laerm;943;51.568;6.998;2023-05-07T05:46:02;46.12;35.60;72.32;;
38366;Laerm;943;51.568;6.998;2023-05-07T05:48:31;42.04;35.38;60.45;;
38366;Laerm;943;51.568;6.998;2023-05-07T05:51:01;43.22;35.14;58.58;;
38366;Laerm;943;51.568;6.998;2023-05-07T05:53:29;50.57;36.08;67.61;;
38366;Laerm;943;51.568;6.998;2023-05-07T05:55:57;55.74;35.57;71.42;;
38366;Laerm;943;51.568;6.998;2023-05-07T05:58:24;48.45;35.18;68.22;;
38366;Laerm;943;51.568;6.998;2023-05-07T06:00:58;50.90;34.88;64.49;;
38366;Laerm;943;51.568;6.998;2023-05-07T06:03:27;48.48;35.74;69.31;;
38366;Laerm;943;51.568;6.998;2023-05-07T06:05:58;44.78;34.39;64.46;;
38366;Laerm;943;51.568;6.998;2023-05-07T06:08:30;43.41;34.92;62.12;;
38366;Laerm;943;51.568;6.998;2023-05-07T06:10:59;58.81;35.02;81.51;;
38366;Laerm;943;51.568;6.998;2023-05-07T06:13:30;63.79;35.26;82.29;;
38366;Laerm;943;51.568;6.998;2023-05-07T06:15:57;52.06;36.15;78.06;;
38366;Laerm;943;51.568;6.998;2023-05-07T06:18:25;47.09;35.63;62.88;;
38366;Laerm;943;51.568;6.998;2023-05-07T06:20:55;45.38;34.15;68.28;;
38366;Laerm;943;51.568;6.998;2023-05-07T06:23:28;43.36;34.37;61.02;;
38366;Laerm;943;51.568;6.998;2023-05-07T06:25:56;44.36;33.77;64.64;;
38366;Laerm;943;51.568;6.998;2023-05-07T06:28:29;50.28;34.44;74.20;;
38366;Laerm;943;51.568;6.998;2023-05-07T06:31:18;52.03;35.00;72.98;;
38366;Laerm;943;51.568;6.998;2023-05-07T06:34:07;42.70;35.03;64.01;;
38366;Laerm;943;51.568;6.998;2023-05-07T06:36:37;43.85;34.55;60.32;;
38366;Laerm;943;51.568;6.998;2023-05-07T06:39:24;49.21;34.59;75.36;;
38366;Laerm;943;51.568;6.998;2023-05-07T06:41:53;48.52;35.46;61.18;;
38366;Laerm;943;51.568;6.998;2023-05-07T06:44:25;47.46;34.88;61.20;;
38366;Laerm;943;51.568;6.998;2023-05-07T06:47:07;50.78;35.83;69.19;;
38366;Laerm;943;51.568;6.998;2023-05-07T06:49:38;43.81;36.33;62.75;;
38366;Laerm;943;51.568;6.998;2023-05-07T06:52:06;47.50;36.24;72.71;;
38366;Laerm;943;51.568;6.998;2023-05-07T06:54:34;45.53;35.74;69.51;;
38366;Laerm;943;51.568;6.998;2023-05-07T06:57:01;42.46;35.81;55.38;;
38366;Laerm;943;51.568;6.998;2023-05-07T06:59:30;41.20;35.37;60.36;;
38366;Laerm;943;51.568;6.998;2023-05-07T07:01:59;40.76;35.92;52.06;;
38366;Laerm;943;51.568;6.998;2023-05-07T07:04:27;53.54;34.80;73.92;;
38366;Laerm;943;51.568;6.998;2023-05-07T07:07:02;46.26;36.50;64.71;;
38366;Laerm;943;51.568;6.998;2023-05-07T07:09:29;43.77;36.22;65.09;;
38366;Laerm;943;51.568;6.998;2023-05-07T07:11:58;46.78;35.27;63.00;;
38366;Laerm;943;51.568;6.998;2023-05-07T07:14:26;50.83;36.04;64.14;;
38366;Laerm;943;51.568;6.998;2023-05-07T07:16:54;48.32;37.42;62.54;;
38366;Laerm;943;51.568;6.998;2023-05-07T07:19:23;51.93;40.28;62.15;;
38366;Laerm;943;51.568;6.998;2023-05-07T07:21:54;47.38;36.80;61.02;;
38366;Laerm;943;51.568;6.998;2023-05-07T07:24:22;47.07;36.50;66.11;;
38366;Laerm;943;51.568;6.998;2023-05-07T07:26:54;47.71;37.27;65.60;;
38366;Laerm;943;51.568;6.998;2023-05-07T07:29:24;54.28;36.90;77.08;;
38366;Laerm;943;51.568;6.998;2023-05-07T07:31:54;49.06;36.59;68.63;;
38366;Laerm;943;51.568;6.998;2023-05-07T07:34:23;46.89;37.28;71.85;;
38366;Laerm;943;51.568;6.998;2023-05-07T07:36:50;47.93;37.19;62.15;;
38366;Laerm;943;51.568;6.998;2023-05-07T07:39:19;45.01;36.38;62.79;;
38366;Laerm;943;51.568;6.998;2023-05-07T07:41:50;45.11;36.57;63.98;;
38366;Laerm;943;51.568;6.998;2023-05-07T07:44:19;42.62;35.68;63.02;;
38366;Laerm;943;51.568;6.998;2023-05-07T07:46:52;44.64;35.80;69.34;;
38366;Laerm;943;51.568;6.998;2023-05-07T07:49:21;46.41;37.58;61.92;;
38366;Laerm;943;51.568;6.998;2023-05-07T07:51:49;58.16;38.79;81.83;;
38366;Laerm;943;51.568;6.998;2023-05-07T07:54:18;54.75;38.37;81.39;;
38366;Laerm;943;51.568;6.998;2023-05-07T07:56:46;45.05;38.12;62.95;;
38366;Laerm;943;51.568;6.998;2023-05-07T07:59:14;49.51;38.22;71.01;;
38366;Laerm;943;51.568;6.998;2023-05-07T08:01:48;50.87;38.98;70.60;;
38366;Laerm;943;51.568;6.998;2023-05-07T08:04:22;49.85;38.00;69.22;;
38366;Laerm;943;51.568;6.998;2023-05-07T08:06:51;56.04;37.79;73.46;;
38366;Laerm;943;51.568;6.998;2023-05-07T08:09:19;48.84;36.23;62.54;;
38366;Laerm;943;51.568;6.998;2023-05-07T08:11:48;50.22;38.24;65.33;;
38366;Laerm;943;51.568;6.998;2023-05-07T08:14:17;49.79;37.16;63.87;;
38366;Laerm;943;51.568;6.998;2023-05-07T08:16:47;48.57;38.12;63.80;;
38366;Laerm;943;51.568;6.998;2023-05-07T08:19:15;48.79;38.01;64.96;;
38366;Laerm;943;51.568;6.998;2023-05-07T08:21:44;48.07;37.41;65.70;;
38366;Laerm;943;51.568;6.998;2023-05-07T08:24:12;49.15;37.51;64.46;;
38366;Laerm;943;51.568;6.998;2023-05-07T08:26:40;47.68;37.25;64.80;;
38366;Laerm;943;51.568;6.998;2023-05-07T08:29:09;47.72;36.91;65.97;;
38366;Laerm;943;51.568;6.998;2023-05-07T08:31:37;51.12;36.35;70.85;;
38366;Laerm;943;51.568;6.998;2023-05-07T08:34:07;47.64;37.46;71.33;;
38366;Laerm;943;51.568;6.998;2023-05-07T08:36:40;49.98;36.99;67.98;;
38366;Laerm;943;51.568;6.998;2023-05-07T08:39:11;50.10;37.06;66.93;;
38366;Laerm;943;51.568;6.998;2023-05-07T08:41:40;51.74;38.73;70.58;;
38366;Laerm;943;51.568;6.998;2023-05-07T08:44:13;50.32;38.47;67.26;;
38366;Laerm;943;51.568;6.998;2023-05-07T08:46:47;55.46;38.95;77.58;;
38366;Laerm;943;51.568;6.998;2023-05-07T08:49:17;53.49;40.97;72.16;;
38366;Laerm;943;51.568;6.998;2023-05-07T08:51:46;52.95;37.95;73.03;;
38366;Laerm;943;51.568;6.998;2023-05-07T08:54:16;44.49;39.24;59.64;;
38366;Laerm;943;51.568;6.998;2023-05-07T08:56:45;55.36;38.20;71.56;;
38366;Laerm;943;51.568;6.998;2023-05-07T08:59:13;49.60;36.95;69.98;;
38366;Laerm;943;51.568;6.998;2023-05-07T09:01:43;43.74;37.14;62.60;;
38366;Laerm;943;51.568;6.998;2023-05-07T09:04:12;47.03;39.27;61.31;;
38366;Laerm;943;51.568;6.998;2023-05-07T09:06:41;45.35;38.63;62.70;;
38366;Laerm;943;51.568;6.998;2023-05-07T09:09:17;48.04;38.27;65.18;;
38366;Laerm;943;51.568;6.998;2023-05-07T09:11:57;52.44;38.44;73.92;;
38366;Laerm;943;51.568;6.998;2023-05-07T09:14:32;47.45;38.26;65.00;;
38366;Laerm;943;51.568;6.998;2023-05-07T09:17:01;51.86;37.60;67.73;;
38366;Laerm;943;51.568;6.998;2023-05-07T09:19:31;54.39;39.36;78.10;;
38366;Laerm;943;51.568;6.998;2023-05-07T09:22:05;51.15;37.17;72.29;;
38366;Laerm;943;51.568;6.998;2023-05-07T09:24:49;51.83;37.04;70.72;;
38366;Laerm;943;51.568;6.998;2023-05-07T09:27:22;47.79;37.70;65.91;;
38366;Laerm;943;51.568;6.998;2023-05-07T09:29:50;47.40;37.81;64.47;;
38366;Laerm;943;51.568;6.998;2023-05-07T09:32:18;47.19;37.46;64.04;;
38366;Laerm;943;51.568;6.998;2023-05-07T09:34:46;56.45;37.88;82.86;;
38366;Laerm;943;51.568;6.998;2023-05-07T09:37:17;49.26;38.64;72.51;;
38366;Laerm;943;51.568;6.998;2023-05-07T09:39:49;52.32;39.37;64.57;;
38366;Laerm;943;51.568;6.998;2023-05-07T09:42:24;52.01;39.11;70.27;;
38366;Laerm;943;51.568;6.998;2023-05-07T09:44:59;55.34;38.72;70.87;;
38366;Laerm;943;51.568;6.998;2023-05-07T09:47:37;55.43;39.46;70.06;;
38366;Laerm;943;51.568;6.998;2023-05-07T09:50:10;50.66;39.50;71.31;;
38366;Laerm;943;51.568;6.998;2023-05-07T09:52:42;51.54;40.03;75.63;;
38366;Laerm;943;51.568;6.998;2023-05-07T09:55:12;48.74;37.13;70.73;;
38366;Laerm;943;51.568;6.998;2023-05-07T09:57:43;50.20;37.81;74.56;;
38366;Laerm;943;51.568;6.998;2023-05-07T10:00:14;45.50;39.27;62.97;;
38366;Laerm;943;51.568;6.998;2023-05-07T10:02:52;57.76;37.68;81.62;;
38366;Laerm;943;51.568;6.998;2023-05-07T10:05:33;56.84;37.50;80.37;;
38366;Laerm;943;51.568;6.998;2023-05-07T10:08:02;58.31;36.92;78.40;;
38366;Laerm;943;51.568;6.998;2023-05-07T10:10:34;46.44;38.11;60.22;;
38366;Laerm;943;51.568;6.998;2023-05-07T10:13:05;43.42;39.24;57.07;;
38366;Laerm;943;51.568;6.998;2023-05-07T10:15:41;42.70;38.08;53.85;;
38366;Laerm;943;51.568;6.998;2023-05-07T10:18:11;52.09;39.09;73.05;;
38366;Laerm;943;51.568;6.998;2023-05-07T10:20:45;55.57;36.80;74.09;;
38366;Laerm;943;51.568;6.998;2023-05-07T10:23:24;48.25;38.28;63.33;;
38366;Laerm;943;51.568;6.998;2023-05-07T10:26:03;50.92;39.55;69.30;;
38366;Laerm;943;51.568;6.998;2023-05-07T10:28:43;49.80;39.69;67.54;;
38366;Laerm;943;51.568;6.998;2023-05-07T10:34:43;53.09;40.86;77.75;;
38366;Laerm;943;51.568;6.998;2023-05-07T10:37:14;49.51;38.68;63.83;;
38366;Laerm;943;51.568;6.998;2023-05-07T10:39:43;50.67;39.08;72.39;;
38366;Laerm;943;51.568;6.998;2023-05-07T10:42:14;49.28;39.05;65.42;;
38366;Laerm;943;51.568;6.998;2023-05-07T10:44:48;44.06;39.47;56.66;;
38366;Laerm;943;51.568;6.998;2023-05-07T10:47:22;44.44;38.39;59.31;;
38366;Laerm;943;51.568;6.998;2023-05-07T10:52:39;49.89;38.65;70.93;;
38366;Laerm;943;51.568;6.998;2023-05-07T11:02:01;45.92;36.34;72.88;;
38366;Laerm;943;51.568;6.998;2023-05-07T11:04:41;52.38;38.22;70.56;;
38366;Laerm;943;51.568;6.998;2023-05-07T11:07:29;47.15;38.82;61.89;;
38366;Laerm;943;51.568;6.998;2023-05-07T11:10:05;45.54;37.76;68.81;;
38366;Laerm;943;51.568;6.998;2023-05-07T11:12:55;47.03;39.09;69.63;;
38366;Laerm;943;51.568;6.998;2023-05-07T11:15:47;44.23;38.80;58.60;;
38366;Laerm;943;51.568;6.998;2023-05-07T11:18:22;43.67;38.36;64.81;;
38366;Laerm;943;51.568;6.998;2023-05-07T11:20:59;43.72;37.99;58.02;;
38366;Laerm;943;51.568;6.998;2023-05-07T11:26:26;46.35;36.98;66.83;;
38366;Laerm;943;51.568;6.998;2023-05-07T11:28:54;48.66;37.99;62.01;;
38366;Laerm;943;51.568;6.998;2023-05-07T11:31:28;49.25;38.48;70.03;;
38366;Laerm;943;51.568;6.998;2023-05-07T11:34:01;55.28;40.38;77.16;;
38366;Laerm;943;51.568;6.998;2023-05-07T11:36:33;45.60;39.07;64.63;;
38366;Laerm;943;51.568;6.998;2023-05-07T11:39:03;45.71;38.23;68.55;;
38366;Laerm;943;51.568;6.998;2023-05-07T11:41:36;44.38;38.52;55.20;;
38366;Laerm;943;51.568;6.998;2023-05-07T11:44:10;45.22;39.11;62.41;;
38366;Laerm;943;51.568;6.998;2023-05-07T11:46:43;44.88;39.66;53.78;;
38366;Laerm;943;51.568;6.998;2023-05-07T11:49:12;52.38;39.25;75.51;;
38366;Laerm;943;51.568;6.998;2023-05-07T11:51:40;48.12;38.67;66.76;;
38366;Laerm;943;51.568;6.998;2023-05-07T11:54:09;48.50;37.46;67.60;;
38366;Laerm;943;51.568;6.998;2023-05-07T11:56:38;49.41;38.85;68.60;;
38366;Laerm;943;51.568;6.998;2023-05-07T11:59:06;51.96;40.32;67.41;;
38366;Laerm;943;51.568;6.998;2023-05-07T12:01:36;51.46;40.55;66.58;;
38366;Laerm;943;51.568;6.998;2023-05-07T12:04:04;54.02;39.45;70.15;;
38366;Laerm;943;51.568;6.998;2023-05-07T12:06:37;52.06;38.49;72.80;;
38366;Laerm;943;51.568;6.998;2023-05-07T12:09:06;46.21;38.06;64.80;;
38366;Laerm;943;51.568;6.998;2023-05-07T12:11:38;48.30;38.26;67.62;;
38366;Laerm;943;51.568;6.998;2023-05-07T12:14:07;50.65;41.01;69.34;;
38366;Laerm;943;51.568;6.998;2023-05-07T12:16:40;47.13;39.02;65.45;;
38366;Laerm;943;51.568;6.998;2023-05-07T12:19:09;52.79;40.02;68.95;;
38366;Laerm;943;51.568;6.998;2023-05-07T12:21:42;50.92;40.41;68.06;;
38366;Laerm;943;51.568;6.998;2023-05-07T12:24:10;51.21;38.65;67.83;;
38366;Laerm;943;51.568;6.998;2023-05-07T12:26:40;50.91;40.34;67.04;;
38366;Laerm;943;51.568;6.998;2023-05-07T12:29:08;51.30;38.84;67.80;;
38366;Laerm;943;51.568;6.998;2023-05-07T12:31:35;50.63;39.11;69.01;;
38366;Laerm;943;51.568;6.998;2023-05-07T12:34:03;50.17;38.36;66.90;;
38366;Laerm;943;51.568;6.998;2023-05-07T12:36:41;50.48;40.15;66.80;;
38366;Laerm;943;51.568;6.998;2023-05-07T12:39:09;51.19;38.77;66.20;;
38366;Laerm;943;51.568;6.998;2023-05-07T12:41:58;51.42;38.36;67.81;;
38366;Laerm;943;51.568;6.998;2023-05-07T12:44:32;51.01;39.46;66.88;;
38366;Laerm;943;51.568;6.998;2023-05-07T12:47:03;51.04;39.58;69.16;;
38366;Laerm;943;51.568;6.998;2023-05-07T12:49:31;51.25;38.65;67.77;;
38366;Laerm;943;51.568;6.998;2023-05-07T12:52:02;52.44;40.00;70.23;;
38366;Laerm;943;51.568;6.998;2023-05-07T12:54:37;46.98;41.21;62.49;;
38366;Laerm;943;51.568;6.998;2023-05-07T12:57:11;46.43;40.29;61.32;;
38366;Laerm;943;51.568;6.998;2023-05-07T12:59:41;48.74;38.63;66.47;;
38366;Laerm;943;51.568;6.998;2023-05-07T13:02:09;49.34;39.73;65.54;;
38366;Laerm;943;51.568;6.998;2023-05-07T13:04:39;52.98;39.70;67.75;;
38366;Laerm;943;51.568;6.998;2023-05-07T13:07:07;53.51;40.96;67.64;;
38366;Laerm;943;51.568;6.998;2023-05-07T13:09:35;53.40;42.35;72.91;;
38366;Laerm;943;51.568;6.998;2023-05-07T13:12:04;55.00;41.37;73.58;;
38366;Laerm;943;51.568;6.998;2023-05-07T13:14:33;52.89;41.31;66.52;;
38366;Laerm;943;51.568;6.998;2023-05-07T13:17:01;63.80;40.73;80.85;;
38366;Laerm;943;51.568;6.998;2023-05-07T13:19:29;56.20;41.33;76.24;;
38366;Laerm;943;51.568;6.998;2023-05-07T13:21:57;51.08;42.23;65.06;;
38366;Laerm;943;51.568;6.998;2023-05-07T13:24:25;53.64;42.50;74.73;;
38366;Laerm;943;51.568;6.998;2023-05-07T13:26:53;50.67;41.69;68.70;;
38366;Laerm;943;51.568;6.998;2023-05-07T13:29:21;48.04;41.02;65.13;;
38366;Laerm;943;51.568;6.998;2023-05-07T13:31:57;49.47;41.34;63.16;;
38366;Laerm;943;51.568;6.998;2023-05-07T13:34:26;51.98;38.94;67.17;;
38366;Laerm;943;51.568;6.998;2023-05-07T13:36:53;59.16;39.41;77.62;;
38366;Laerm;943;51.568;6.998;2023-05-07T13:39:21;61.85;42.38;80.48;;
38366;Laerm;943;51.568;6.998;2023-05-07T13:41:49;55.04;41.58;75.23;;
38366;Laerm;943;51.568;6.998;2023-05-07T13:44:17;53.74;42.38;72.08;;
38366;Laerm;943;51.568;6.998;2023-05-07T13:46:45;66.79;42.58;101.76;;
38366;Laerm;943;51.568;6.998;2023-05-07T13:49:12;52.75;40.85;70.57;;
38366;Laerm;943;51.568;6.998;2023-05-07T13:51:41;55.80;42.48;77.46;;
38366;Laerm;943;51.568;6.998;2023-05-07T13:54:08;52.22;42.19;67.93;;
38366;Laerm;943;51.568;6.998;2023-05-07T13:56:36;49.36;41.24;67.08;;
38366;Laerm;943;51.568;6.998;2023-05-07T13:59:04;53.81;41.87;71.40;;
38366;Laerm;943;51.568;6.998;2023-05-07T14:01:31;50.11;41.05;72.99;;
38366;Laerm;943;51.568;6.998;2023-05-07T14:03:59;50.75;39.37;71.33;;
38366;Laerm;943;51.568;6.998;2023-05-07T14:06:27;50.86;41.48;69.84;;
38366;Laerm;943;51.568;6.998;2023-05-07T14:08:55;56.81;41.54;72.39;;
38366;Laerm;943;51.568;6.998;2023-05-07T14:11:25;50.82;41.38;65.13;;
38366;Laerm;943;51.568;6.998;2023-05-07T14:13:53;46.99;40.09;62.37;;
38366;Laerm;943;51.568;6.998;2023-05-07T14:16:20;48.93;40.51;64.92;;
38366;Laerm;943;51.568;6.998;2023-05-07T14:18:48;51.91;39.83;67.22;;
38366;Laerm;943;51.568;6.998;2023-05-07T14:21:16;49.77;39.94;64.54;;
38366;Laerm;943;51.568;6.998;2023-05-07T14:23:43;51.94;39.16;66.90;;
38366;Laerm;943;51.568;6.998;2023-05-07T14:26:11;52.08;39.78;68.86;;
38366;Laerm;943;51.568;6.998;2023-05-07T14:28:40;48.10;38.54;65.12;;
38366;Laerm;943;51.568;6.998;2023-05-07T14:31:13;49.78;39.99;73.18;;
38366;Laerm;943;51.568;6.998;2023-05-07T14:33:41;52.94;39.16;71.87;;
38366;Laerm;943;51.568;6.998;2023-05-07T14:36:08;51.42;40.48;71.16;;
38366;Laerm;943;51.568;6.998;2023-05-07T14:38:36;47.14;39.79;66.18;;
38366;Laerm;943;51.568;6.998;2023-05-07T14:41:04;52.16;39.97;68.81;;
38366;Laerm;943;51.568;6.998;2023-05-07T14:43:32;52.20;39.59;68.17;;